Observations for Trim Patrick St
| Time | AQI | Temp °C | Hum % | Pres Pa | CO μg/m³ | H₂S μg/m³ | NO μg/m³ | NO₂ μg/m³ | O₃ μg/m³ | SO₂ μg/m³ | PM1 μg/m³ | PM2.5 μg/m³ | PM10 μg/m³ |
|---|---|---|---|---|---|---|---|---|---|---|---|---|---|
| Friday 28 August 2026 | |||||||||||||
| 05:34 | 3 | 16.1 | 89 | 38,459 | 0.18 | 1.4 | 2.13 | 13.78 | 26.17 | 0 | 11.43 | 17.62 | 19.38 |
| 05:33 | 3 | 16.1 | 88 | 38,459 | 0.18 | 3.02 | 2.3 | 16.74 | 27 | 0 | 12.29 | 16.94 | 18.64 |
| 05:32 | 3 | 16.1 | 88 | 38,459 | 0.17 | 2.21 | 1.92 | 16.47 | 17.64 | 0 | 11.43 | 16.26 | 17.89 |
| 05:31 | 3 | 16.1 | 88 | 38,459 | 0.17 | 1.29 | 1.64 | 14.01 | 26.26 | 0 | 11.43 | 16.94 | 18.64 |
| 05:30 | 3 | 16.1 | 88 | 38,459 | 0.18 | 2.52 | 1.89 | 17 | 19.48 | 0.32 | 9.71 | 16.26 | 17.89 |
| 05:29 | 3 | 16.1 | 88 | 38,459 | 0.16 | 2 | 1.75 | 15.01 | 22.41 | 0 | 12.29 | 17.63 | 19.39 |
| 05:28 | 3 | 16.1 | 88 | 38,459 | 0.17 | 1.24 | 1.76 | 13.29 | 29.58 | 0 | 10.57 | 14.22 | 15.64 |
| 05:26 | 3 | 16.1 | 88 | 38,459 | 0.17 | 1.37 | 1.96 | 13.52 | 31.48 | 0 | 13.14 | 17.64 | 19.4 |
| 05:25 | 3 | 16.1 | 88 | 38,459 | 0.17 | 1.61 | 1.67 | 13.76 | 27.11 | 0 | 11.43 | 16.96 | 18.65 |
| 05:24 | 3 | 16.1 | 88 | 38,459 | 0.17 | 2.28 | 1.8 | 14.12 | 27.25 | 0 | 10.57 | 16.27 | 17.9 |
| 05:23 | 3 | 16.1 | 88 | 38,459 | 0.17 | 1.95 | 1.82 | 15.7 | 22.45 | 0 | 11.43 | 16.96 | 18.65 |
| 05:22 | 3 | 16.1 | 88 | 38,459 | 0.16 | 1.16 | 1.75 | 13.62 | 29.79 | 0 | 10.57 | 17.65 | 19.41 |
| 05:21 | 3 | 16.1 | 88 | 38,459 | 0.17 | 1.63 | 2.44 | 14 | 27.14 | 0 | 11.43 | 16.96 | 18.65 |
| 05:20 | 3 | 16.1 | 88 | 38,459 | 0.17 | 1.5 | 2.17 | 13.16 | 31.67 | 0 | 8.86 | 13.54 | 14.9 |
| 05:18 | 3 | 16.1 | 88 | 38,459 | 0.16 | 1.27 | 1.6 | 13.03 | 30.25 | 0 | 9.71 | 16.96 | 18.65 |
| 05:17 | 3 | 16.2 | 88 | 38,459 | 0.16 | 1.66 | 1.51 | 12.84 | 30.29 | 0 | 11.43 | 18.33 | 20.16 |
| 05:16 | 3 | 16.1 | 88 | 38,459 | 0.16 | 1.45 | 1.42 | 13.63 | 28.37 | 0 | 11.43 | 15.6 | 17.16 |
| 05:15 | 3 | 16.1 | 88 | 38,459 | 0.16 | 0.85 | 1.42 | 13.02 | 29.4 | 0 | 11.43 | 17.65 | 19.41 |
| 05:14 | 3 | 16.2 | 88 | 38,459 | 0.16 | 1.27 | 1.48 | 12.84 | 29.83 | 0 | 9.71 | 16.28 | 17.91 |
| 05:13 | 3 | 16.1 | 88 | 38,459 | 0.17 | 1.01 | 1.46 | 13.27 | 30.27 | 0 | 10.57 | 15.6 | 17.16 |